Time;durP1;ratioP1;P1;durP2;ratioP2;P2;SDS_P1;SDS_P2;PMS_P1;PMS_P2;Temp;Humidity;BMP_temperature;BMP_pressure;BME280_temperature;BME280_humidity;BME280_pressure;Samples;Min_cycle;Max_cycle;Signal;HPM_P1;HPM_P2
2024/04/06 00:00:29;;;;;;;;;10.33;8.00;;;;;;;;5075109;28;28927;-81
2024/04/06 00:02:55;;;;;;;;;12.33;11.00;;;;;;;;5078608;28;28543;-80
2024/04/06 00:05:21;;;;;;;;;12.00;10.00;;;;;;;;5051455;28;29632;-82
2024/04/06 00:07:46;;;;;;;;;13.33;10.67;;;;;;;;5075668;28;28796;-81
2024/04/06 00:10:12;;;;;;;;;9.00;9.00;;;;;;;;5073613;28;28608;-82
2024/04/06 00:12:38;;;;;;;;;13.00;10.67;;;;;;;;5080587;27;28533;-81
2024/04/06 00:15:04;;;;;;;;;10.67;10.67;;;;;;;;5078955;28;28541;-81
2024/04/06 00:17:32;;;;;;;;;10.67;10.33;;;;;;;;5052314;28;29462;-80
2024/04/06 00:19:59;;;;;;;;;11.00;10.00;;;;;;;;5067136;28;28786;-80
2024/04/06 00:22:25;;;;;;;;;15.33;14.00;;;;;;;;5055693;28;28941;-82
2024/04/06 00:24:56;;;;;;;;;20.33;16.00;;;;;;;;5050042;28;30445;-80
2024/04/06 00:27:21;;;;;;;;;24.00;20.67;;;;;;;;5066237;28;29819;-79
2024/04/06 00:29:50;;;;;;;;;13.33;13.33;;;;;;;;5081510;28;28810;-79
2024/04/06 00:32:16;;;;;;;;;15.33;14.33;;;;;;;;5048954;28;28410;-80
2024/04/06 00:34:42;;;;;;;;;22.67;17.67;;;;;;;;5061188;28;28437;-80
2024/04/06 00:37:10;;;;;;;;;14.67;14.67;;;;;;;;5070174;28;28839;-81
2024/04/06 00:39:37;;;;;;;;;17.00;14.00;;;;;;;;5045580;28;29563;-80
2024/04/06 00:42:03;;;;;;;;;18.67;15.00;;;;;;;;5074880;28;28681;-78
2024/04/06 00:44:28;;;;;;;;;17.33;13.00;;;;;;;;5071566;28;28526;-82
2024/04/06 00:46:54;;;;;;;;;12.00;11.00;;;;;;;;5057580;28;28494;-81
2024/04/06 00:49:27;;;;;;;;;15.67;14.00;;;;;;;;5072898;28;28721;-81
2024/04/06 00:51:57;;;;;;;;;17.00;13.33;;;;;;;;5054027;28;28497;-82
2024/04/06 00:54:24;;;;;;;;;12.67;9.67;;;;;;;;5071785;28;28613;-80
2024/04/06 00:56:50;;;;;;;;;15.00;11.33;;;;;;;;5072366;28;29250;-79
2024/04/06 00:59:19;;;;;;;;;13.33;10.67;;;;;;;;5071522;28;28750;-81
2024/04/06 01:01:45;;;;;;;;;10.00;8.67;;;;;;;;5079930;28;28493;-80
2024/04/06 01:04:13;;;;;;;;;12.33;10.00;;;;;;;;5078627;28;28678;-81
2024/04/06 01:06:38;;;;;;;;;13.00;11.00;;;;;;;;5065519;28;29153;-79
2024/04/06 01:09:08;;;;;;;;;7.33;5.00;;;;;;;;5052995;28;29320;-79
2024/04/06 01:11:35;;;;;;;;;12.33;10.33;;;;;;;;5078909;27;28448;-82
2024/04/06 01:14:04;;;;;;;;;13.67;11.00;;;;;;;;5074671;28;28611;-81
2024/04/06 01:16:30;;;;;;;;;10.67;9.00;;;;;;;;5049427;28;29995;-79
2024/04/06 01:18:55;;;;;;;;;14.00;13.67;;;;;;;;5071742;28;28578;-79
2024/04/06 01:21:21;;;;;;;;;12.33;12.33;;;;;;;;5076898;28;28623;-79
2024/04/06 01:23:50;;;;;;;;;7.00;5.00;;;;;;;;5049741;28;28749;-81
2024/04/06 01:26:19;;;;;;;;;5.33;5.00;;;;;;;;5049030;28;30069;-82
2024/04/06 01:28:46;;;;;;;;;7.67;5.33;;;;;;;;5064120;28;28546;-79
2024/04/06 01:31:12;;;;;;;;;5.00;3.33;;;;;;;;5049702;28;28997;-81
2024/04/06 01:33:40;;;;;;;;;3.00;3.00;;;;;;;;5068978;28;29137;-79
2024/04/06 01:36:08;;;;;;;;;6.00;4.33;;;;;;;;5055706;28;29186;-80
2024/04/06 01:38:38;;;;;;;;;6.67;3.00;;;;;;;;5063271;28;28564;-79
2024/04/06 01:41:05;;;;;;;;;3.00;3.00;;;;;;;;5064381;28;28888;-79
2024/04/06 01:43:32;;;;;;;;;3.00;3.00;;;;;;;;5033764;28;28930;-81
2024/04/06 01:45:59;;;;;;;;;3.00;2.33;;;;;;;;5043115;28;28839;-79
2024/04/06 01:48:26;;;;;;;;;5.75;2.75;;;;;;;;5066241;28;28615;-81
2024/04/06 01:50:53;;;;;;;;;3.67;3.67;;;;;;;;5064984;28;28461;-78
2024/04/06 01:53:20;;;;;;;;;3.67;2.00;;;;;;;;5066598;28;28587;-79
2024/04/06 01:55:55;;;;;;;;;4.00;4.00;;;;;;;;5059023;28;29139;-78
2024/04/06 01:58:20;;;;;;;;;3.00;3.00;;;;;;;;5075724;28;28896;-78
2024/04/06 02:00:45;;;;;;;;;3.00;3.00;;;;;;;;5049943;28;28948;-79
2024/04/06 02:03:11;;;;;;;;;6.00;4.33;;;;;;;;5067549;28;28501;-77
2024/04/06 02:05:36;;;;;;;;;3.00;3.00;;;;;;;;5049302;28;29212;-79
2024/04/06 02:08:02;;;;;;;;;5.33;4.00;;;;;;;;5062132;28;28639;-79
2024/04/06 02:10:29;;;;;;;;;2.00;2.00;;;;;;;;5064907;28;28780;-78
2024/04/06 02:12:54;;;;;;;;;6.00;5.00;;;;;;;;5070004;27;30271;-79
2024/04/06 02:15:20;;;;;;;;;7.00;5.00;;;;;;;;5088181;27;28955;-79
2024/04/06 02:17:45;;;;;;;;;4.00;3.00;;;;;;;;5088332;27;28509;-80
2024/04/06 02:20:10;;;;;;;;;1.67;1.67;;;;;;;;5079883;27;28419;-79
2024/04/06 02:22:36;;;;;;;;;4.67;4.67;;;;;;;;5080615;27;29129;-79
2024/04/06 02:25:03;;;;;;;;;4.00;3.33;;;;;;;;5097209;27;28522;-79
2024/04/06 02:27:28;;;;;;;;;3.00;3.00;;;;;;;;5081087;27;28520;-79
2024/04/06 02:29:53;;;;;;;;;3.33;2.00;;;;;;;;5090779;27;28956;-79
2024/04/06 02:32:18;;;;;;;;;4.33;3.33;;;;;;;;5085897;27;28481;-77
2024/04/06 02:34:44;;;;;;;;;3.33;3.33;;;;;;;;5066708;27;29946;-80
2024/04/06 02:37:09;;;;;;;;;2.67;1.67;;;;;;;;5073215;27;29050;-81
2024/04/06 02:39:34;;;;;;;;;3.33;3.33;;;;;;;;5081359;27;28809;-81
2024/04/06 02:42:00;;;;;;;;;2.67;2.67;;;;;;;;5073613;28;29335;-78
2024/04/06 02:44:25;;;;;;;;;3.00;3.00;;;;;;;;5074107;27;30055;-80
2024/04/06 02:46:50;;;;;;;;;3.33;2.67;;;;;;;;5076646;28;28493;-80
2024/04/06 02:49:16;;;;;;;;;6.67;4.33;;;;;;;;5077458;28;29023;-77
2024/04/06 02:51:41;;;;;;;;;3.00;3.00;;;;;;;;5085249;27;28510;-80
2024/04/06 02:54:06;;;;;;;;;3.33;3.00;;;;;;;;5106501;27;28468;-79
2024/04/06 02:56:31;;;;;;;;;2.67;2.33;;;;;;;;5078408;27;28649;-79
2024/04/06 02:58:57;;;;;;;;;3.67;2.33;;;;;;;;5088822;27;28791;-79
2024/04/06 03:01:22;;;;;;;;;3.00;2.00;;;;;;;;5108140;27;29540;-78
2024/04/06 03:03:47;;;;;;;;;6.00;3.67;;;;;;;;5083187;27;29705;-78
2024/04/06 03:06:13;;;;;;;;;3.67;2.33;;;;;;;;5092285;27;28486;-79
2024/04/06 03:08:38;;;;;;;;;1.67;1.67;;;;;;;;5070776;28;28705;-77
2024/04/06 03:11:03;;;;;;;;;3.00;2.00;;;;;;;;5082535;27;29708;-79
2024/04/06 03:13:28;;;;;;;;;4.00;3.00;;;;;;;;5083822;28;30544;-79
2024/04/06 03:15:54;;;;;;;;;1.50;1.50;;;;;;;;5086889;27;28444;-79
2024/04/06 03:18:19;;;;;;;;;1.33;0.00;;;;;;;;5080731;28;28452;-80
2024/04/06 03:20:44;;;;;;;;;4.00;2.33;;;;;;;;5091224;27;28497;-78
2024/04/06 03:23:10;;;;;;;;;2.33;2.33;;;;;;;;5102638;27;28929;-78
2024/04/06 03:25:35;;;;;;;;;2.67;1.33;;;;;;;;5100028;27;28446;-80
2024/04/06 03:28:00;;;;;;;;;2.67;2.00;;;;;;;;5081697;27;28785;-79
2024/04/06 03:30:26;;;;;;;;;3.00;2.00;;;;;;;;5089593;27;28833;-78
2024/04/06 03:32:51;;;;;;;;;3.67;2.00;;;;;;;;5078179;27;28621;-80
2024/04/06 03:35:17;;;;;;;;;2.67;2.33;;;;;;;;5088655;27;29001;-79
2024/04/06 03:37:44;;;;;;;;;2.33;1.00;;;;;;;;5081001;27;28733;-79
2024/04/06 03:40:10;;;;;;;;;4.33;1.33;;;;;;;;5092003;27;29766;-79
2024/04/06 03:42:35;;;;;;;;;6.33;2.00;;;;;;;;5084519;27;29233;-79
2024/04/06 03:45:00;;;;;;;;;1.33;1.33;;;;;;;;5088894;28;28159;-78
2024/04/06 03:47:27;;;;;;;;;1.33;1.33;;;;;;;;5070093;27;28537;-78
2024/04/06 03:49:53;;;;;;;;;1.67;1.67;;;;;;;;5090076;27;28556;-79
2024/04/06 03:52:18;;;;;;;;;2.33;1.67;;;;;;;;5090266;27;29089;-80
2024/04/06 03:54:43;;;;;;;;;1.00;1.00;;;;;;;;5093058;27;28487;-80
2024/04/06 03:57:09;;;;;;;;;2.67;2.00;;;;;;;;5084229;27;29181;-80
2024/04/06 03:59:35;;;;;;;;;1.67;1.67;;;;;;;;5076018;27;29778;-79
2024/04/06 04:02:00;;;;;;;;;1.67;1.00;;;;;;;;5103510;27;28797;-79
2024/04/06 04:04:25;;;;;;;;;4.33;2.33;;;;;;;;5086989;27;28637;-79
2024/04/06 04:06:51;;;;;;;;;2.00;2.00;;;;;;;;5101889;27;28460;-76
2024/04/06 04:09:16;;;;;;;;;2.67;1.33;;;;;;;;5095413;27;28722;-77
2024/04/06 04:11:42;;;;;;;;;2.00;2.00;;;;;;;;5077824;28;30349;-79
2024/04/06 04:14:07;;;;;;;;;1.67;1.67;;;;;;;;5107523;27;28843;-78
2024/04/06 04:16:33;;;;;;;;;2.00;1.00;;;;;;;;5077643;28;28821;-79
2024/04/06 04:18:58;;;;;;;;;1.67;1.67;;;;;;;;5070335;28;28429;-78
2024/04/06 04:21:23;;;;;;;;;1.33;1.33;;;;;;;;5078836;27;28875;-77
2024/04/06 04:23:48;;;;;;;;;0.67;0.67;;;;;;;;5094517;27;28525;-77
2024/04/06 04:26:13;;;;;;;;;0.67;0.67;;;;;;;;5080704;27;28542;-78
2024/04/06 04:28:39;;;;;;;;;0.00;0.00;;;;;;;;5102631;27;28547;-79
2024/04/06 04:31:12;;;;;;;;;0.67;0.67;;;;;;;;5095781;27;28518;-77
2024/04/06 04:33:37;;;;;;;;;3.00;1.25;;;;;;;;5078147;27;28474;-77
2024/04/06 04:36:03;;;;;;;;;0.67;0.67;;;;;;;;5075148;27;28453;-78
2024/04/06 04:38:28;;;;;;;;;0.00;0.00;;;;;;;;5090809;27;28618;-77
2024/04/06 04:40:53;;;;;;;;;1.00;1.00;;;;;;;;5080907;27;28785;-78
2024/04/06 04:43:19;;;;;;;;;1.33;1.33;;;;;;;;5101143;27;28560;-81
2024/04/06 04:45:44;;;;;;;;;1.33;1.33;;;;;;;;5102568;27;28710;-80
2024/04/06 04:48:09;;;;;;;;;1.00;1.00;;;;;;;;5085351;27;29694;-78
2024/04/06 04:50:34;;;;;;;;;1.00;1.00;;;;;;;;5099095;27;29293;-78
2024/04/06 04:52:59;;;;;;;;;0.33;0.00;;;;;;;;5095812;27;28558;-78
2024/04/06 04:55:25;;;;;;;;;1.00;0.00;;;;;;;;5082702;27;28838;-79
2024/04/06 04:57:50;;;;;;;;;3.00;0.67;;;;;;;;5086666;27;28689;-77
2024/04/06 05:00:15;;;;;;;;;2.00;0.00;;;;;;;;5090761;27;28598;-79
2024/04/06 05:02:40;;;;;;;;;0.67;0.67;;;;;;;;5084338;27;29017;-78
2024/04/06 05:05:06;;;;;;;;;0.00;0.00;;;;;;;;5090193;27;28881;-77
2024/04/06 05:07:31;;;;;;;;;1.00;1.00;;;;;;;;5082091;27;30187;-78
2024/04/06 05:09:56;;;;;;;;;2.00;1.00;;;;;;;;5105730;27;28697;-79
2024/04/06 05:12:22;;;;;;;;;1.00;1.00;;;;;;;;5099775;27;28736;-78
2024/04/06 05:14:47;;;;;;;;;1.00;0.00;;;;;;;;5087324;27;28513;-77
2024/04/06 05:17:12;;;;;;;;;2.00;0.00;;;;;;;;5089178;27;29331;-77
2024/04/06 05:19:37;;;;;;;;;1.00;1.00;;;;;;;;5088793;27;29847;-77
2024/04/06 05:22:03;;;;;;;;;0.67;0.67;;;;;;;;5092535;27;28592;-79
2024/04/06 05:24:28;;;;;;;;;0.00;0.00;;;;;;;;5094543;27;28844;-79
2024/04/06 05:26:53;;;;;;;;;0.00;0.00;;;;;;;;5091414;27;29140;-80
2024/04/06 05:29:18;;;;;;;;;1.00;0.00;;;;;;;;5064363;28;30181;-78
2024/04/06 05:31:44;;;;;;;;;0.00;0.00;;;;;;;;5094099;27;28524;-79
2024/04/06 05:34:09;;;;;;;;;0.00;0.00;;;;;;;;5090356;27;28612;-79
2024/04/06 05:36:35;;;;;;;;;0.00;0.00;;;;;;;;5099151;27;28736;-79
2024/04/06 05:39:00;;;;;;;;;0.00;0.00;;;;;;;;5106147;27;29290;-78
2024/04/06 05:41:26;;;;;;;;;0.00;0.00;;;;;;;;5093355;27;28468;-80
2024/04/06 05:43:54;;;;;;;;;0.25;0.00;;;;;;;;5092701;27;28520;-80
2024/04/06 05:46:19;;;;;;;;;1.50;0.75;;;;;;;;5072369;27;29738;-79
2024/04/06 05:48:44;;;;;;;;;0.00;0.00;;;;;;;;5077485;28;29798;-78
2024/04/06 05:51:10;;;;;;;;;0.00;0.00;;;;;;;;5090319;27;28519;-78
2024/04/06 05:53:35;;;;;;;;;0.00;0.00;;;;;;;;5098412;27;28457;-80
2024/04/06 05:56:00;;;;;;;;;0.33;0.00;;;;;;;;5075991;27;29672;-79
2024/04/06 05:58:26;;;;;;;;;0.00;0.00;;;;;;;;5085771;27;29001;-80
2024/04/06 06:00:51;;;;;;;;;0.00;0.00;;;;;;;;5088147;27;28442;-78
2024/04/06 06:03:19;;;;;;;;;0.00;0.00;;;;;;;;5076065;27;28501;-79
2024/04/06 06:05:45;;;;;;;;;0.00;0.00;;;;;;;;5089470;27;29491;-79
2024/04/06 06:08:10;;;;;;;;;0.00;0.00;;;;;;;;5084621;27;28625;-79
2024/04/06 06:10:35;;;;;;;;;0.00;0.00;;;;;;;;5089583;27;28655;-79
2024/04/06 06:13:01;;;;;;;;;0.00;0.00;;;;;;;;5078640;27;28802;-78
2024/04/06 06:15:29;;;;;;;;;0.00;0.00;;;;;;;;5099530;27;28446;-80
2024/04/06 06:17:55;;;;;;;;;0.00;0.00;;;;;;;;5105345;27;28951;-79
2024/04/06 06:20:20;;;;;;;;;0.00;0.00;;;;;;;;5089667;27;29020;-79
2024/04/06 06:22:45;;;;;;;;;1.25;0.00;;;;;;;;5101674;27;28498;-81
2024/04/06 06:25:11;;;;;;;;;0.00;0.00;;;;;;;;5113306;27;29373;-78
2024/04/06 06:27:36;;;;;;;;;0.50;0.50;;;;;;;;5099292;27;29442;-79
2024/04/06 06:30:02;;;;;;;;;0.50;0.50;;;;;;;;5096012;27;28866;-79
2024/04/06 06:32:27;;;;;;;;;1.25;0.00;;;;;;;;5097822;27;28638;-77
2024/04/06 06:34:52;;;;;;;;;0.75;0.75;;;;;;;;5101277;27;28621;-77
2024/04/06 06:37:18;;;;;;;;;0.00;0.00;;;;;;;;5096157;27;28089;-76
2024/04/06 06:39:43;;;;;;;;;0.25;0.00;;;;;;;;5094858;27;28437;-75
2024/04/06 06:42:11;;;;;;;;;0.00;0.00;;;;;;;;5099570;27;28540;-77
2024/04/06 06:44:36;;;;;;;;;2.00;0.00;;;;;;;;5088067;27;28540;-74
2024/04/06 06:47:02;;;;;;;;;0.00;0.00;;;;;;;;5077460;27;28777;-75
2024/04/06 06:49:27;;;;;;;;;3.00;2.00;;;;;;;;5083428;27;27980;-74
2024/04/06 06:51:52;;;;;;;;;0.00;0.00;;;;;;;;5085252;27;28943;-77
2024/04/06 06:54:18;;;;;;;;;1.00;0.00;;;;;;;;5094868;27;29461;-76
2024/04/06 06:56:43;;;;;;;;;1.00;0.00;;;;;;;;5105764;27;28820;-76
2024/04/06 06:59:08;;;;;;;;;1.00;0.00;;;;;;;;5085052;27;29483;-74
2024/04/06 07:01:34;;;;;;;;;0.00;0.00;;;;;;;;5087586;27;28655;-74
2024/04/06 07:03:59;;;;;;;;;0.00;0.00;;;;;;;;5095841;27;29055;-80
2024/04/06 07:06:24;;;;;;;;;0.00;0.00;;;;;;;;5088698;27;28644;-75
2024/04/06 07:08:50;;;;;;;;;0.00;0.00;;;;;;;;5086476;27;28585;-73
2024/04/06 07:11:15;;;;;;;;;0.25;0.25;;;;;;;;5086851;27;28626;-74
2024/04/06 07:13:40;;;;;;;;;1.00;0.00;;;;;;;;5072158;28;28963;-76
2024/04/06 07:16:07;;;;;;;;;0.00;0.00;;;;;;;;5073647;28;28994;-74
2024/04/06 07:18:32;;;;;;;;;0.00;0.00;;;;;;;;5069026;28;28609;-75
2024/04/06 07:20:57;;;;;;;;;0.50;0.00;;;;;;;;5084431;28;28546;-76
2024/04/06 07:23:23;;;;;;;;;0.00;0.00;;;;;;;;5061590;28;29652;-79
2024/04/06 07:25:48;;;;;;;;;0.75;0.00;;;;;;;;5061548;28;29379;-80
2024/04/06 07:28:13;;;;;;;;;0.00;0.00;;;;;;;;5066026;28;28667;-80
2024/04/06 07:30:51;;;;;;;;;0.00;0.00;;;;;;;;5079723;28;28461;-81
2024/04/06 07:33:16;;;;;;;;;0.00;0.00;;;;;;;;5080545;28;28663;-78
2024/04/06 07:35:41;;;;;;;;;0.00;0.00;;;;;;;;5069523;28;29339;-79
2024/04/06 07:38:07;;;;;;;;;0.00;0.00;;;;;;;;5080965;28;28398;-78
2024/04/06 07:40:32;;;;;;;;;0.00;0.00;;;;;;;;5055792;28;28494;-78
2024/04/06 07:42:58;;;;;;;;;0.00;0.00;;;;;;;;5055844;28;29857;-78
2024/04/06 07:45:23;;;;;;;;;0.00;0.00;;;;;;;;5057967;28;29244;-80
2024/04/06 07:47:48;;;;;;;;;0.00;0.00;;;;;;;;5048689;28;28761;-78
2024/04/06 07:50:14;;;;;;;;;0.00;0.00;;;;;;;;5075422;28;29006;-78
2024/04/06 07:52:40;;;;;;;;;0.00;0.00;;;;;;;;5071609;28;29113;-79
2024/04/06 07:55:05;;;;;;;;;1.00;0.00;;;;;;;;5064492;28;28631;-77
2024/04/06 07:57:30;;;;;;;;;0.00;0.00;;;;;;;;5046538;28;29439;-80
2024/04/06 07:59:56;;;;;;;;;0.00;0.00;;;;;;;;5076934;28;29061;-80
2024/04/06 08:02:22;;;;;;;;;0.00;0.00;;;;;;;;5074050;28;29123;-79
2024/04/06 08:04:47;;;;;;;;;1.00;0.00;;;;;;;;5054280;28;30977;-76
2024/04/06 08:07:12;;;;;;;;;0.00;0.00;;;;;;;;5068869;28;28720;-75
2024/04/06 08:09:37;;;;;;;;;0.00;0.00;;;;;;;;5077382;28;28910;-74
2024/04/06 08:12:03;;;;;;;;;0.00;0.00;;;;;;;;5071609;27;28615;-74
2024/04/06 08:14:28;;;;;;;;;0.00;0.00;;;;;;;;5066876;28;29029;-75
2024/04/06 08:16:54;;;;;;;;;0.00;0.00;;;;;;;;5072252;28;28931;-75
2024/04/06 08:19:19;;;;;;;;;2.00;0.00;;;;;;;;5068459;28;28393;-75
2024/04/06 08:21:44;;;;;;;;;0.00;0.00;;;;;;;;5053673;28;29770;-75
2024/04/06 08:24:10;;;;;;;;;0.00;0.00;;;;;;;;5070648;28;29544;-75
2024/04/06 08:26:35;;;;;;;;;4.25;1.25;;;;;;;;5068117;28;29044;-75
2024/04/06 08:29:01;;;;;;;;;0.00;0.00;;;;;;;;5055074;28;28903;-76
2024/04/06 08:31:26;;;;;;;;;0.00;0.00;;;;;;;;5072257;28;28690;-76
2024/04/06 08:33:52;;;;;;;;;0.75;0.00;;;;;;;;5075538;28;28534;-75
2024/04/06 08:36:17;;;;;;;;;0.00;0.00;;;;;;;;5057046;28;28537;-76
2024/04/06 08:38:42;;;;;;;;;1.00;0.00;;;;;;;;5068493;28;28545;-75
2024/04/06 08:41:08;;;;;;;;;1.00;0.00;;;;;;;;5047288;28;29218;-77
2024/04/06 08:43:35;;;;;;;;;0.00;0.00;;;;;;;;5062285;28;30072;-75
2024/04/06 08:46:00;;;;;;;;;0.00;0.00;;;;;;;;5077965;28;28701;-77
2024/04/06 08:48:28;;;;;;;;;0.00;0.00;;;;;;;;5081897;28;28915;-75
2024/04/06 08:50:53;;;;;;;;;0.00;0.00;;;;;;;;5073102;28;29362;-75
2024/04/06 08:53:18;;;;;;;;;0.25;0.00;;;;;;;;5054367;28;28540;-76
2024/04/06 08:55:44;;;;;;;;;0.00;0.00;;;;;;;;5078428;28;28449;-75
2024/04/06 08:58:09;;;;;;;;;1.50;0.00;;;;;;;;5075238;28;28589;-75
2024/04/06 09:00:37;;;;;;;;;0.00;0.00;;;;;;;;5055657;28;30207;-75
2024/04/06 09:03:03;;;;;;;;;1.00;0.00;;;;;;;;5051148;28;29117;-74
2024/04/06 09:05:29;;;;;;;;;0.00;0.00;;;;;;;;5059248;28;29633;-75
2024/04/06 09:07:57;;;;;;;;;0.00;0.00;;;;;;;;5072809;28;28615;-76
2024/04/06 09:10:27;;;;;;;;;0.00;0.00;;;;;;;;5076084;28;28867;-78
2024/04/06 09:12:52;;;;;;;;;0.00;0.00;;;;;;;;5076864;27;28782;-76
2024/04/06 09:15:18;;;;;;;;;0.25;0.00;;;;;;;;5066538;28;28573;-76
2024/04/06 09:17:43;;;;;;;;;0.20;0.00;;;;;;;;5073983;28;28560;-79
2024/04/06 09:20:09;;;;;;;;;0.75;0.00;;;;;;;;5075179;28;28638;-79
2024/04/06 09:22:34;;;;;;;;;0.00;0.00;;;;;;;;5081529;28;28522;-80
2024/04/06 09:25:04;;;;;;;;;2.50;0.00;;;;;;;;5073307;28;28857;-79
2024/04/06 09:27:29;;;;;;;;;0.00;0.00;;;;;;;;5071557;28;28509;-79
2024/04/06 09:29:54;;;;;;;;;14.50;14.50;;;;;;;;5036785;28;29111;-79
2024/04/06 09:32:22;;;;;;;;;0.00;0.00;;;;;;;;5068073;28;28536;-78
2024/04/06 09:34:51;;;;;;;;;0.00;0.00;;;;;;;;5064152;28;28878;-79
2024/04/06 09:37:37;;;;;;;;;0.00;0.00;;;;;;;;5069070;28;28497;-80
2024/04/06 09:40:05;;;;;;;;;27.00;27.00;;;;;;;;5078138;28;28622;-77
2024/04/06 09:42:31;;;;;;;;;1.00;0.00;;;;;;;;5072888;28;28473;-80
2024/04/06 09:44:56;;;;;;;;;1.00;0.00;;;;;;;;5075227;28;28898;-80
2024/04/06 09:47:23;;;;;;;;;0.00;0.00;;;;;;;;5074162;28;28434;-78
2024/04/06 09:49:49;;;;;;;;;0.60;0.00;;;;;;;;5068910;28;28624;-75
2024/04/06 09:52:14;;;;;;;;;1.00;0.00;;;;;;;;5047589;28;30283;-75
2024/04/06 09:54:39;;;;;;;;;0.00;0.00;;;;;;;;5066062;28;28865;-75
2024/04/06 09:57:06;;;;;;;;;1.00;0.00;;;;;;;;5048794;28;28565;-74
2024/04/06 09:59:51;;;;;;;;;0.00;0.00;;;;;;;;5065583;28;29896;-76
2024/04/06 10:02:23;;;;;;;;;0.40;0.40;;;;;;;;5041405;28;29757;-76
2024/04/06 10:04:56;;;;;;;;;0.00;0.00;;;;;;;;5085635;28;28935;-75
2024/04/06 10:07:28;;;;;;;;;0.00;0.00;;;;;;;;5068109;28;29191;-76
2024/04/06 10:10:04;;;;;;;;;0.00;0.00;;;;;;;;5041110;28;30259;-74
2024/04/06 10:12:35;;;;;;;;;0.40;0.00;;;;;;;;5063425;28;30816;-78
2024/04/06 10:15:11;;;;;;;;;0.00;0.00;;;;;;;;5066927;28;28493;-80
2024/04/06 10:17:47;;;;;;;;;1.80;1.80;;;;;;;;5060001;28;28634;-77
2024/04/06 10:20:13;;;;;;;;;0.00;0.00;;;;;;;;5067536;28;28691;-79
2024/04/06 10:22:52;;;;;;;;;0.00;0.00;;;;;;;;5060424;28;29044;-78
2024/04/06 10:25:18;;;;;;;;;1.00;0.00;;;;;;;;5067997;28;28817;-79
2024/04/06 10:27:43;;;;;;;;;0.00;0.00;;;;;;;;5047167;28;29062;-77
2024/04/06 10:30:09;;;;;;;;;0.00;0.00;;;;;;;;5060302;28;29902;-76
2024/04/06 10:32:37;;;;;;;;;1.25;0.25;;;;;;;;5065921;28;28572;-75
2024/04/06 10:35:03;;;;;;;;;0.00;0.00;;;;;;;;5067321;28;28491;-74
2024/04/06 10:37:28;;;;;;;;;0.40;0.00;;;;;;;;5048159;28;28552;-76
2024/04/06 10:39:54;;;;;;;;;0.25;0.00;;;;;;;;5062653;28;29309;-75
2024/04/06 10:42:24;;;;;;;;;0.00;0.00;;;;;;;;5048778;28;29966;-75
2024/04/06 10:44:50;;;;;;;;;0.40;0.00;;;;;;;;5061157;28;28684;-75
2024/04/06 10:47:15;;;;;;;;;1.00;1.00;;;;;;;;5061495;28;28592;-75
2024/04/06 10:49:41;;;;;;;;;0.00;0.00;;;;;;;;5059955;28;29359;-74
2024/04/06 10:52:08;;;;;;;;;0.00;0.00;;;;;;;;5062900;28;29004;-75
2024/04/06 10:54:35;;;;;;;;;0.40;0.00;;;;;;;;5053436;28;29013;-79
2024/04/06 10:57:01;;;;;;;;;1.00;1.00;;;;;;;;5057519;28;28525;-78
2024/04/06 10:59:27;;;;;;;;;0.00;0.00;;;;;;;;5063748;28;28446;-78
2024/04/06 11:01:52;;;;;;;;;2.25;1.00;;;;;;;;5045564;28;29133;-81
2024/04/06 11:04:17;;;;;;;;;0.00;0.00;;;;;;;;5074470;28;27882;-80
2024/04/06 11:06:43;;;;;;;;;0.00;0.00;;;;;;;;5067889;28;28656;-77
2024/04/06 11:09:10;;;;;;;;;0.00;0.00;;;;;;;;5056576;28;29601;-78
2024/04/06 11:11:37;;;;;;;;;0.60;0.00;;;;;;;;5075066;27;28457;-79
2024/04/06 11:14:03;;;;;;;;;0.00;0.00;;;;;;;;5074104;28;28421;-77
2024/04/06 11:16:28;;;;;;;;;3.00;0.00;;;;;;;;5057456;28;28358;-78
2024/04/06 11:18:53;;;;;;;;;0.50;0.00;;;;;;;;5076098;28;28713;-78
2024/04/06 11:21:19;;;;;;;;;1.25;0.00;;;;;;;;5074637;28;28909;-79
2024/04/06 11:23:47;;;;;;;;;0.00;0.00;;;;;;;;5074102;28;28540;-79
2024/04/06 11:26:14;;;;;;;;;1.60;0.00;;;;;;;;5072416;28;28846;-83
2024/04/06 11:28:40;;;;;;;;;0.00;0.00;;;;;;;;5061337;28;28893;-80
2024/04/06 11:31:12;;;;;;;;;1.00;1.00;;;;;;;;5075579;28;28539;-79
2024/04/06 11:33:38;;;;;;;;;0.00;0.00;;;;;;;;5059287;28;28781;-79
2024/04/06 11:36:13;;;;;;;;;17.33;17.33;;;;;;;;5068319;28;28666;-78
2024/04/06 11:38:38;;;;;;;;;0.00;0.00;;;;;;;;5080342;28;28944;-78
2024/04/06 11:41:03;;;;;;;;;0.00;0.00;;;;;;;;5063806;28;30112;-77
2024/04/06 11:43:29;;;;;;;;;0.00;0.00;;;;;;;;5075282;28;28530;-79
2024/04/06 11:45:54;;;;;;;;;1.00;1.00;;;;;;;;5074261;28;28769;-79
2024/04/06 11:48:19;;;;;;;;;0.00;0.00;;;;;;;;5045399;28;29095;-79
2024/04/06 11:50:45;;;;;;;;;1.00;1.00;;;;;;;;5050691;28;31279;-78
2024/04/06 11:53:10;;;;;;;;;1.25;0.25;;;;;;;;5062207;28;28574;-80
2024/04/06 11:55:36;;;;;;;;;1.50;0.25;;;;;;;;5055503;28;28511;-79
2024/04/06 11:58:02;;;;;;;;;0.00;0.00;;;;;;;;5080271;28;28553;-78
2024/04/06 12:00:28;;;;;;;;;0.00;0.00;;;;;;;;5075482;28;28920;-79
2024/04/06 12:02:53;;;;;;;;;3.00;1.00;;;;;;;;5060252;28;28980;-78
2024/04/06 12:05:18;;;;;;;;;0.25;0.00;;;;;;;;5069819;28;28531;-77
2024/04/06 12:07:47;;;;;;;;;0.00;0.00;;;;;;;;5066306;28;28485;-77
2024/04/06 12:10:24;;;;;;;;;0.00;0.00;;;;;;;;5062517;28;29478;-81
2024/04/06 12:12:49;;;;;;;;;0.00;0.00;;;;;;;;5069796;28;28629;-76
2024/04/06 12:15:15;;;;;;;;;0.00;0.00;;;;;;;;5030652;28;28544;-75
2024/04/06 12:17:43;;;;;;;;;0.00;0.00;;;;;;;;5078978;28;28608;-77
2024/04/06 12:20:12;;;;;;;;;0.00;0.00;;;;;;;;5059745;28;28918;-76
2024/04/06 12:22:37;;;;;;;;;0.00;0.00;;;;;;;;5080217;28;28564;-77
2024/04/06 12:25:03;;;;;;;;;0.00;0.00;;;;;;;;5087168;28;28759;-80
2024/04/06 12:27:29;;;;;;;;;0.00;0.00;;;;;;;;5084447;28;28715;-81
2024/04/06 12:29:54;;;;;;;;;0.00;0.00;;;;;;;;5077406;27;28564;-78
2024/04/06 12:32:19;;;;;;;;;0.00;0.00;;;;;;;;5073566;28;28875;-79
2024/04/06 12:34:44;;;;;;;;;2.00;0.00;;;;;;;;5081268;28;28415;-78
2024/04/06 12:37:10;;;;;;;;;3.00;3.00;;;;;;;;5070880;28;28484;-81
2024/04/06 12:39:36;;;;;;;;;0.00;0.00;;;;;;;;5088355;28;28851;-80
2024/04/06 12:42:03;;;;;;;;;0.00;0.00;;;;;;;;5072180;27;28456;-80
2024/04/06 12:44:28;;;;;;;;;0.00;0.00;;;;;;;;5063803;28;28478;-80
2024/04/06 12:46:53;;;;;;;;;4.50;4.50;;;;;;;;5070923;28;28805;-79
2024/04/06 12:49:22;;;;;;;;;10.75;10.75;;;;;;;;5075481;28;29199;-78
2024/04/06 12:51:47;;;;;;;;;9.00;5.00;;;;;;;;5077742;28;28571;-78
2024/04/06 12:54:14;;;;;;;;;4.25;3.00;;;;;;;;5078938;28;28488;-83
2024/04/06 12:59:26;;;;;;;;;0.00;0.00;;;;;;;;5074642;28;28525;-80
2024/04/06 13:01:51;;;;;;;;;0.00;0.00;;;;;;;;5065010;28;28509;-76
2024/04/06 13:04:17;;;;;;;;;0.00;0.00;;;;;;;;5066232;28;28446;-75
2024/04/06 13:06:42;;;;;;;;;0.00;0.00;;;;;;;;5074720;28;28704;-77
2024/04/06 13:09:07;;;;;;;;;5.00;5.00;;;;;;;;5101084;28;28174;-77
2024/04/06 13:11:33;;;;;;;;;9.75;9.75;;;;;;;;5100456;28;8801;-81
2024/04/06 13:13:58;;;;;;;;;5.00;4.00;;;;;;;;5082728;28;8924;-79
2024/04/06 13:16:28;;;;;;;;;0.00;0.00;;;;;;;;5108586;28;8812;-79
2024/04/06 13:18:53;;;;;;;;;0.00;0.00;;;;;;;;5092817;28;8805;-79
2024/04/06 13:21:18;;;;;;;;;12.75;12.75;;;;;;;;5075264;28;8829;-81
2024/04/06 13:23:43;;;;;;;;;0.00;0.00;;;;;;;;5083550;28;8835;-75
2024/04/06 13:26:11;;;;;;;;;0.50;0.50;;;;;;;;5088592;28;8830;-75
2024/04/06 13:28:36;;;;;;;;;3.00;3.00;;;;;;;;5101197;28;8799;-75
2024/04/06 13:31:02;;;;;;;;;17.00;16.67;;;;;;;;5084027;28;8807;-75
2024/04/06 13:33:27;;;;;;;;;0.50;0.25;;;;;;;;5102578;28;8935;-77
2024/04/06 13:35:52;;;;;;;;;1.50;0.50;;;;;;;;5088920;28;8803;-75
2024/04/06 13:38:17;;;;;;;;;11.00;11.00;;;;;;;;5079277;28;8853;-78
2024/04/06 13:40:43;;;;;;;;;3.00;2.00;;;;;;;;5088111;28;8824;-78
2024/04/06 13:43:08;;;;;;;;;1.00;0.00;;;;;;;;5106668;27;8827;-78
2024/04/06 13:45:33;;;;;;;;;1.50;1.50;;;;;;;;5093217;28;8847;-78
2024/04/06 13:47:59;;;;;;;;;0.25;0.00;;;;;;;;5085017;28;8867;-76
2024/04/06 13:50:24;;;;;;;;;1.00;0.00;;;;;;;;5075602;28;9285;-76
2024/04/06 13:52:50;;;;;;;;;0.00;0.00;;;;;;;;5100740;28;11465;-75
2024/04/06 13:55:15;;;;;;;;;36.50;36.00;;;;;;;;5099798;28;8908;-76
2024/04/06 13:57:45;;;;;;;;;0.00;0.00;;;;;;;;5078410;28;8872;-76
2024/04/06 14:00:11;;;;;;;;;0.20;0.20;;;;;;;;5075387;28;8820;-78
2024/04/06 14:02:36;;;;;;;;;13.50;13.50;;;;;;;;5072280;28;8923;-78
2024/04/06 14:05:03;;;;;;;;;0.00;0.00;;;;;;;;5072141;28;8834;-75
2024/04/06 14:07:28;;;;;;;;;0.00;0.00;;;;;;;;5086637;28;8809;-75
2024/04/06 14:09:54;;;;;;;;;0.75;0.00;;;;;;;;5079589;28;9719;-75
2024/04/06 14:12:21;;;;;;;;;0.75;0.50;;;;;;;;5105727;27;8840;-75
2024/04/06 14:14:46;;;;;;;;;1.00;0.00;;;;;;;;5091097;28;8788;-76
2024/04/06 14:17:12;;;;;;;;;0.25;0.00;;;;;;;;5075121;28;9625;-75
2024/04/06 14:19:37;;;;;;;;;0.00;0.00;;;;;;;;5087436;28;9597;-78
2024/04/06 14:22:02;;;;;;;;;0.00;0.00;;;;;;;;5095071;28;8838;-79
2024/04/06 14:24:28;;;;;;;;;0.00;0.00;;;;;;;;5091233;28;8864;-79
2024/04/06 14:26:55;;;;;;;;;1.00;0.00;;;;;;;;5089426;28;8861;-80
2024/04/06 14:29:20;;;;;;;;;0.80;0.20;;;;;;;;5089520;28;8825;-79
2024/04/06 14:31:46;;;;;;;;;0.00;0.00;;;;;;;;5073046;28;8956;-79
2024/04/06 14:34:11;;;;;;;;;1.00;0.00;;;;;;;;5084585;28;9549;-80
2024/04/06 14:36:36;;;;;;;;;0.00;0.00;;;;;;;;5095621;28;8816;-80